createdAt,value
2023-03-03T00:00:08.397Z,-0.86
2023-03-03T00:03:20.107Z,-0.83
2023-03-03T00:06:21.740Z,-0.89
2023-03-03T00:09:23.222Z,-0.95
2023-03-03T00:12:28.548Z,-1.07
2023-03-03T00:15:31.255Z,-1.09
2023-03-03T00:18:37.350Z,-1.08
2023-03-03T00:21:45.759Z,-1.09
2023-03-03T00:24:47.321Z,-1.21
2023-03-03T00:27:48.820Z,-1.26
2023-03-03T00:30:52.315Z,-1.24
2023-03-03T00:33:55.681Z,-1.21
2023-03-03T00:36:58.424Z,-1.17
2023-03-03T00:40:23.827Z,-1.14
2023-03-03T00:43:33.180Z,-1.12
2023-03-03T00:46:37.030Z,-1.10
2023-03-03T00:49:39.455Z,-1.12
2023-03-03T00:52:46.188Z,-1.18
2023-03-03T00:55:49.685Z,-1.25
2023-03-03T00:58:52.000Z,-1.27
2023-03-03T01:01:55.889Z,-1.20
2023-03-03T01:04:57.610Z,-1.16
2023-03-03T01:07:59.282Z,-1.12
2023-03-03T01:11:08.681Z,-1.07
2023-03-03T01:14:10.226Z,-0.94
2023-03-03T01:17:11.837Z,-0.92
2023-03-03T01:20:15.316Z,-0.89
2023-03-03T01:23:16.860Z,-0.85
2023-03-03T01:26:18.581Z,-0.82
2023-03-03T01:29:20.303Z,-0.81
2023-03-03T01:32:22.423Z,-0.75
2023-03-03T01:35:24.265Z,-0.69
2023-03-03T01:38:26.085Z,-0.63
2023-03-03T01:41:30.072Z,-0.67
2023-03-03T01:44:31.629Z,-0.65
2023-03-03T01:47:34.393Z,-0.68
2023-03-03T01:50:47.014Z,-0.73
2023-03-03T01:53:52.949Z,-0.81
2023-03-03T01:56:58.337Z,-0.74
2023-03-03T02:00:02.472Z,-0.74
2023-03-03T02:03:14.166Z,-0.79
2023-03-03T02:06:19.397Z,-0.85
2023-03-03T02:09:36.833Z,-0.83
2023-03-03T02:12:51.295Z,-0.84
2023-03-03T02:15:52.784Z,-0.85
2023-03-03T02:18:54.596Z,-0.83
2023-03-03T02:21:56.528Z,-0.87
2023-03-03T02:25:02.002Z,-0.88
2023-03-03T02:28:04.387Z,-0.86
2023-03-03T02:31:13.423Z,-0.82
2023-03-03T02:34:15.886Z,-0.91
2023-03-03T02:37:19.568Z,-0.93
2023-03-03T02:40:24.437Z,-0.89
2023-03-03T02:43:32.386Z,-0.94
2023-03-03T02:46:39.681Z,-0.95
2023-03-03T02:49:42.960Z,-0.94
2023-03-03T02:52:44.426Z,-0.94
2023-03-03T02:55:45.972Z,-0.92
2023-03-03T02:58:47.421Z,-0.98
2023-03-03T03:01:49.641Z,-1.08
2023-03-03T03:04:53.313Z,-1.17
2023-03-03T03:07:58.144Z,-1.28
2023-03-03T03:10:59.853Z,-1.23
2023-03-03T03:14:03.852Z,-1.29
2023-03-03T03:17:05.757Z,-1.31
2023-03-03T03:20:07.540Z,-1.27
2023-03-03T03:23:10.186Z,-1.34
2023-03-03T03:26:12.183Z,-1.43
2023-03-03T03:29:13.743Z,-1.45
2023-03-03T03:32:15.254Z,-1.46
2023-03-03T03:35:17.514Z,-1.54
2023-03-03T03:43:00.276Z,-1.63
2023-03-03T03:46:01.890Z,-1.62
2023-03-03T03:49:04.400Z,-1.61
2023-03-03T03:52:06.062Z,-1.57
2023-03-03T03:55:09.761Z,-1.56
2023-03-03T03:58:14.683Z,-1.51
2023-03-03T04:01:16.729Z,-1.57
2023-03-03T04:04:22.738Z,-1.57
2023-03-03T04:07:25.027Z,-1.51
2023-03-03T04:10:26.604Z,-1.48
2023-03-03T04:13:31.837Z,-1.51
2023-03-03T04:16:34.755Z,-1.52
2023-03-03T04:19:36.491Z,-1.47
2023-03-03T04:22:40.149Z,-1.38
2023-03-03T04:25:41.829Z,-1.24
2023-03-03T04:28:48.759Z,-1.18
2023-03-03T04:31:50.661Z,-1.11
2023-03-03T04:35:05.589Z,-1.09
2023-03-03T04:38:09.704Z,-1.04
2023-03-03T04:41:11.898Z,-1.10
2023-03-03T04:44:14.222Z,-1.04
2023-03-03T04:47:15.857Z,-1.09
2023-03-03T04:50:17.617Z,-1.09
2023-03-03T04:53:19.235Z,-1.03
2023-03-03T04:56:21.191Z,-0.94
2023-03-03T04:59:23.592Z,-0.93
2023-03-03T05:02:25.318Z,-0.98
2023-03-03T05:05:27.229Z,-1.01
2023-03-03T05:08:28.739Z,-0.89
2023-03-03T05:11:30.391Z,-0.78
2023-03-03T05:14:32.061Z,-0.70
2023-03-03T05:17:33.568Z,-0.62
2023-03-03T05:20:35.010Z,-0.61
2023-03-03T05:23:36.502Z,-0.57
2023-03-03T05:26:38.254Z,-0.61
2023-03-03T05:29:39.923Z,-0.55
2023-03-03T05:32:41.496Z,-0.55
2023-03-03T05:35:43.347Z,-0.50
2023-03-03T05:38:44.856Z,-0.52
2023-03-03T05:41:46.391Z,-0.46
2023-03-03T05:44:47.945Z,-0.42
2023-03-03T05:47:49.552Z,-0.36
2023-03-03T05:50:51.016Z,-0.30
2023-03-03T05:53:54.722Z,-0.18
2023-03-03T05:56:57.589Z,-0.14
2023-03-03T05:59:59.184Z,-0.12
2023-03-03T06:03:00.944Z,-0.13
2023-03-03T06:06:02.431Z,-0.09
2023-03-03T06:09:03.962Z,0.01
2023-03-03T06:12:05.923Z,0.11
2023-03-03T06:15:08.546Z,0.16
2023-03-03T06:18:10.127Z,0.13
2023-03-03T06:21:11.730Z,0.19
2023-03-03T06:24:13.161Z,0.30
2023-03-03T06:27:14.629Z,0.38
2023-03-03T06:30:16.565Z,0.46
2023-03-03T06:33:18.031Z,0.56
2023-03-03T06:36:20.353Z,0.58
2023-03-03T06:39:21.823Z,0.61
2023-03-03T06:42:24.848Z,0.67
2023-03-03T06:45:26.334Z,0.76
2023-03-03T06:48:28.448Z,0.83
2023-03-03T06:51:35.422Z,0.84
2023-03-03T06:54:36.936Z,0.81
2023-03-03T06:57:38.577Z,0.87
2023-03-03T07:00:44.023Z,0.97
2023-03-03T07:03:45.757Z,0.99
2023-03-03T07:06:47.197Z,1.10
2023-03-03T07:09:51.445Z,1.16
2023-03-03T07:12:52.979Z,1.31
2023-03-03T07:16:00.617Z,1.43
2023-03-03T07:19:03.547Z,1.53
2023-03-03T07:22:13.770Z,1.57
2023-03-03T07:25:26.797Z,1.67
2023-03-03T07:28:32.689Z,1.77
2023-03-03T07:31:37.546Z,1.83
2023-03-03T07:34:45.061Z,1.90
2023-03-03T07:37:46.692Z,2.02
2023-03-03T07:40:51.345Z,2.11
2023-03-03T07:44:00.082Z,2.18
2023-03-03T07:47:17.699Z,2.22
2023-03-03T07:50:21.552Z,2.28
2023-03-03T07:53:34.878Z,2.24
2023-03-03T07:56:36.712Z,2.39
2023-03-03T07:59:42.179Z,2.50
2023-03-03T08:02:56.491Z,2.53
2023-03-03T08:05:57.914Z,2.60
2023-03-03T08:09:24.744Z,2.67
2023-03-03T08:12:42.188Z,2.79
2023-03-03T08:15:45.573Z,2.85
2023-03-03T08:18:49.486Z,3.01
2023-03-03T08:21:52.009Z,3.07
2023-03-03T08:24:53.499Z,3.22
2023-03-03T08:27:55.030Z,3.33
2023-03-03T08:31:12.538Z,3.39
2023-03-03T08:34:18.115Z,3.46
2023-03-03T08:37:19.616Z,3.56
2023-03-03T08:40:21.200Z,3.72
2023-03-03T08:43:22.857Z,3.90
2023-03-03T08:46:24.364Z,4.06
2023-03-03T08:49:25.867Z,4.22
2023-03-03T08:52:27.298Z,4.39
2023-03-03T08:55:28.809Z,4.51
2023-03-03T08:58:35.497Z,4.65
2023-03-03T09:01:37.778Z,4.74
2023-03-03T09:04:39.560Z,4.80
2023-03-03T09:07:41.525Z,4.84
2023-03-03T09:10:43.036Z,4.88
2023-03-03T09:13:44.531Z,5.01
2023-03-03T09:16:50.803Z,5.07
2023-03-03T09:19:54.811Z,5.16
2023-03-03T09:22:56.476Z,5.39
2023-03-03T09:26:26.880Z,5.56
2023-03-03T09:29:37.778Z,5.77
2023-03-03T09:32:39.558Z,5.88
2023-03-03T09:35:42.463Z,5.97
2023-03-03T09:38:45.933Z,6.06
2023-03-03T09:42:12.255Z,6.08
2023-03-03T09:45:15.143Z,6.07
2023-03-03T09:48:30.523Z,6.05
2023-03-03T09:51:41.606Z,5.91
2023-03-03T09:54:54.245Z,5.96
2023-03-03T09:58:10.874Z,6.01
2023-03-03T10:01:34.714Z,6.32
2023-03-03T10:04:39.337Z,6.52
2023-03-03T10:08:31.696Z,6.64
2023-03-03T10:11:54.616Z,6.62
2023-03-03T10:15:03.466Z,6.57
2023-03-03T10:18:29.286Z,6.47
2023-03-03T10:21:43.740Z,6.64
2023-03-03T10:25:04.917Z,6.61
2023-03-03T10:28:40.442Z,6.95
2023-03-03T10:31:57.300Z,6.94
2023-03-03T10:35:18.822Z,7.00
2023-03-03T10:38:44.044Z,7.05
2023-03-03T10:42:08.655Z,7.40
2023-03-03T10:45:32.062Z,7.37
2023-03-03T10:49:01.195Z,7.40
2023-03-03T10:52:31.742Z,7.61
2023-03-03T10:55:50.022Z,7.64
2023-03-03T10:59:13.318Z,7.67
2023-03-03T11:02:34.153Z,7.72
2023-03-03T11:05:50.722Z,7.46
2023-03-03T11:09:03.098Z,7.29
2023-03-03T11:12:21.474Z,7.45
2023-03-03T11:15:41.475Z,7.39
2023-03-03T11:18:55.128Z,7.46
2023-03-03T11:22:23.741Z,7.48
2023-03-03T11:25:44.011Z,7.56
2023-03-03T11:29:07.026Z,7.56
2023-03-03T11:32:32.878Z,7.56
2023-03-03T11:35:44.290Z,7.73
2023-03-03T11:39:01.119Z,7.68
2023-03-03T11:42:23.619Z,7.78
2023-03-03T11:45:34.186Z,8.08
2023-03-03T11:48:42.555Z,8.14
2023-03-03T11:52:06.425Z,8.17
2023-03-03T11:55:22.545Z,8.02
2023-03-03T11:58:30.957Z,8.08
2023-03-03T12:01:39.253Z,8.08
2023-03-03T12:04:51.957Z,8.10
2023-03-03T12:08:18.117Z,8.11
2023-03-03T12:11:23.176Z,8.11
2023-03-03T12:15:06.837Z,8.14
2023-03-03T12:18:31.645Z,8.28
2023-03-03T12:21:33.137Z,8.40
2023-03-03T12:24:34.557Z,8.64
2023-03-03T12:27:41.205Z,8.86
2023-03-03T12:30:58.188Z,8.38
2023-03-03T12:34:08.773Z,8.65
2023-03-03T12:37:28.643Z,8.91
2023-03-03T12:40:38.244Z,9.29
2023-03-03T12:43:51.480Z,9.27
2023-03-03T12:47:09.924Z,9.15
2023-03-03T12:50:23.243Z,8.96
2023-03-03T12:53:33.841Z,8.57
2023-03-03T12:56:55.176Z,8.70
2023-03-03T13:00:23.058Z,9.08
2023-03-03T13:03:54.919Z,9.16
2023-03-03T13:07:12.568Z,8.86
2023-03-03T13:10:24.514Z,8.64
2023-03-03T13:13:39.979Z,9.20
2023-03-03T13:17:15.231Z,9.34
2023-03-03T13:20:30.173Z,9.15
2023-03-03T13:23:52.456Z,9.70
2023-03-03T13:26:58.589Z,9.66
2023-03-03T13:30:14.521Z,9.57
2023-03-03T13:33:25.574Z,9.55
2023-03-03T13:36:59.010Z,9.42
2023-03-03T13:40:11.080Z,9.50
2023-03-03T13:43:22.232Z,9.42
2023-03-03T13:46:33.943Z,9.52
2023-03-03T13:49:53.976Z,9.39
2023-03-03T13:53:17.520Z,9.16
2023-03-03T13:56:49.679Z,9.26
2023-03-03T14:00:15.833Z,9.38
2023-03-03T14:03:26.370Z,9.56
2023-03-03T14:06:29.393Z,9.32
2023-03-03T14:09:55.513Z,9.17
2023-03-03T14:13:05.846Z,8.85
2023-03-03T14:16:16.378Z,9.51
2023-03-03T14:19:45.255Z,10.25
2023-03-03T14:22:54.652Z,10.56
2023-03-03T14:26:05.369Z,9.91
2023-03-03T14:29:21.780Z,9.53
2023-03-03T14:32:39.366Z,9.28
2023-03-03T14:35:57.178Z,9.31
2023-03-03T14:38:59.014Z,9.28
2023-03-03T14:42:02.372Z,9.44
2023-03-03T14:45:29.055Z,9.70
2023-03-03T14:48:32.831Z,9.73
2023-03-03T14:51:43.360Z,9.57
2023-03-03T14:55:27.736Z,9.70
2023-03-03T14:58:41.469Z,10.03
2023-03-03T15:01:43.370Z,10.04
2023-03-03T15:04:46.409Z,10.10
2023-03-03T15:08:14.369Z,10.15
2023-03-03T15:11:21.270Z,10.03
2023-03-03T15:14:31.915Z,9.69
2023-03-03T15:17:54.153Z,9.51
2023-03-03T15:21:10.572Z,9.32
2023-03-03T15:24:34.367Z,9.20
2023-03-03T15:27:44.278Z,8.81
2023-03-03T15:30:53.420Z,8.90
2023-03-03T15:34:11.242Z,9.32
2023-03-03T15:37:24.932Z,9.90
2023-03-03T15:40:45.978Z,9.69
2023-03-03T15:44:06.409Z,9.19
2023-03-03T15:47:44.781Z,8.87
2023-03-03T15:51:20.576Z,8.64
2023-03-03T15:54:37.092Z,8.44
2023-03-03T15:57:41.699Z,8.34
2023-03-03T16:01:20.247Z,8.21
2023-03-03T16:04:26.153Z,7.99
2023-03-03T16:07:45.192Z,7.78
2023-03-03T16:10:55.636Z,7.71
2023-03-03T16:14:15.703Z,7.42
2023-03-03T16:17:30.312Z,7.35
2023-03-03T16:20:57.331Z,7.23
2023-03-03T16:24:08.609Z,7.09
2023-03-03T16:27:35.924Z,7.04
2023-03-03T16:31:03.093Z,7.03
2023-03-03T16:34:17.677Z,6.92
2023-03-03T16:37:34.650Z,6.86
2023-03-03T16:40:47.237Z,6.79
2023-03-03T16:44:12.918Z,6.80
2023-03-03T16:47:41.114Z,6.80
2023-03-03T16:51:04.144Z,6.81
2023-03-03T16:54:16.532Z,6.80
2023-03-03T16:57:56.694Z,6.70
2023-03-03T17:01:16.809Z,6.58
2023-03-03T17:04:39.516Z,6.47
2023-03-03T17:08:21.816Z,6.44
2023-03-03T17:11:43.413Z,6.38
2023-03-03T17:15:09.474Z,6.23
2023-03-03T17:18:54.441Z,6.10
2023-03-03T17:22:12.664Z,5.97
2023-03-03T17:25:24.697Z,5.87
2023-03-03T17:28:34.680Z,5.86
2023-03-03T17:31:45.176Z,5.82
2023-03-03T17:34:58.728Z,5.70
2023-03-03T17:38:26.710Z,5.49
2023-03-03T17:41:31.090Z,5.30
2023-03-03T17:44:55.856Z,5.11
2023-03-03T17:47:57.202Z,4.99
2023-03-03T17:51:30.265Z,4.91
2023-03-03T17:55:04.455Z,4.87
2023-03-03T17:58:23.012Z,4.68
2023-03-03T18:01:48.889Z,4.55
2023-03-03T18:05:37.326Z,4.41
2023-03-03T18:09:15.629Z,4.26
2023-03-03T18:12:36.301Z,4.17
2023-03-03T18:16:11.091Z,4.07
2023-03-03T18:19:56.479Z,4.02
2023-03-03T18:23:17.660Z,4.01
2023-03-03T18:26:36.030Z,4.00
2023-03-03T18:29:37.668Z,3.91
2023-03-03T18:33:06.121Z,3.91
2023-03-03T18:36:37.372Z,3.88
2023-03-03T18:39:44.296Z,3.95
2023-03-03T18:42:46.386Z,3.98
2023-03-03T18:45:50.451Z,3.95
2023-03-03T18:49:08.081Z,3.88
2023-03-03T18:52:32.921Z,3.82
2023-03-03T18:55:43.860Z,3.77
2023-03-03T18:58:45.331Z,3.79
2023-03-03T19:01:48.486Z,3.74
2023-03-03T19:05:12.383Z,3.59
2023-03-03T19:08:57.905Z,3.41
2023-03-03T19:11:59.365Z,3.43
2023-03-03T19:15:00.897Z,3.31
2023-03-03T19:18:17.409Z,3.18
2023-03-03T19:21:24.997Z,3.01
2023-03-03T19:24:30.571Z,2.94
2023-03-03T19:30:56.385Z,2.63
2023-03-03T19:33:57.929Z,2.52
2023-03-03T19:37:07.408Z,2.42
2023-03-03T19:40:14.538Z,2.22
2023-03-03T19:43:40.822Z,2.14
2023-03-03T19:47:01.535Z,2.14
2023-03-03T19:50:18.477Z,2.07
2023-03-03T19:53:42.823Z,1.94
2023-03-03T19:56:52.681Z,1.89
2023-03-03T20:00:26.896Z,1.79
2023-03-03T20:03:52.851Z,1.72
2023-03-03T20:07:00.001Z,1.68
2023-03-03T20:10:08.192Z,1.68
2023-03-03T20:13:16.357Z,1.70
2023-03-03T20:16:40.659Z,1.66
2023-03-03T20:20:01.970Z,1.57
2023-03-03T20:23:27.441Z,1.56
2023-03-03T20:26:52.079Z,1.48
2023-03-03T20:30:01.092Z,1.43
2023-03-03T20:33:11.400Z,1.28
2023-03-03T20:36:25.005Z,1.22
2023-03-03T20:39:38.465Z,1.09
2023-03-03T20:42:56.541Z,0.86
2023-03-03T20:46:10.163Z,0.85
2023-03-03T20:49:30.381Z,0.88
2023-03-03T20:52:40.745Z,1.02
2023-03-03T20:56:00.974Z,1.07
2023-03-03T20:59:21.190Z,1.08
2023-03-03T21:02:46.933Z,1.02
2023-03-03T21:06:09.310Z,0.97
2023-03-03T21:09:32.879Z,0.95
2023-03-03T21:12:34.474Z,0.83
2023-03-03T21:15:36.011Z,0.82
2023-03-03T21:18:37.643Z,0.80
2023-03-03T21:21:41.966Z,0.76
2023-03-03T21:24:50.530Z,0.69
2023-03-03T21:27:52.045Z,0.63
2023-03-03T21:31:09.026Z,0.59
2023-03-03T21:34:22.260Z,0.53
2023-03-03T21:37:55.406Z,0.60
2023-03-03T21:41:00.812Z,0.52
2023-03-03T21:44:22.295Z,0.55
2023-03-03T21:47:28.614Z,0.57
2023-03-03T21:50:32.623Z,0.52
2023-03-03T21:53:34.796Z,0.44
2023-03-03T21:56:37.872Z,0.38
2023-03-03T21:59:40.031Z,0.49
2023-03-03T22:02:41.433Z,0.49
2023-03-03T22:05:42.890Z,0.58
2023-03-03T22:08:44.402Z,0.61
2023-03-03T22:11:45.927Z,0.57
2023-03-03T22:14:47.565Z,0.60
2023-03-03T22:17:49.058Z,0.58
2023-03-03T22:20:50.647Z,0.52
2023-03-03T22:23:52.145Z,0.60
2023-03-03T22:26:53.691Z,0.60
2023-03-03T22:29:55.178Z,0.70
2023-03-03T22:32:56.780Z,0.68
2023-03-03T22:35:58.527Z,0.67
2023-03-03T22:39:00.988Z,0.59
2023-03-03T22:42:02.481Z,0.61
2023-03-03T22:45:04.426Z,0.56
2023-03-03T22:48:06.382Z,0.43
2023-03-03T22:51:07.918Z,0.42
2023-03-03T22:54:09.512Z,0.37
2023-03-03T22:57:10.995Z,0.37
2023-03-03T23:00:13.465Z,0.35
2023-03-03T23:03:15.922Z,0.38
2023-03-03T23:06:17.433Z,0.38
2023-03-03T23:09:18.950Z,0.37
2023-03-03T23:12:20.383Z,0.34
2023-03-03T23:15:22.459Z,0.30
2023-03-03T23:18:23.965Z,0.22
2023-03-03T23:21:25.427Z,0.12
2023-03-03T23:24:27.007Z,0.02
2023-03-03T23:27:28.602Z,0.03
2023-03-03T23:30:30.057Z,-0.11
2023-03-03T23:33:31.461Z,-0.11
2023-03-03T23:36:32.914Z,-0.07
2023-03-03T23:39:34.417Z,-0.07
2023-03-03T23:42:35.858Z,-0.12
2023-03-03T23:45:37.318Z,-0.23
2023-03-03T23:48:38.776Z,-0.32
2023-03-03T23:51:40.313Z,-0.36
2023-03-03T23:54:41.736Z,-0.33
2023-03-03T23:57:43.338Z,-0.37
